CheckWX is a tool to help pilots better visualize weather data.  It is not intended as a substitute for an official pre-flight weather briefing.

14:16:43 UTC

KGAI METAR
Montgomery County Airpark
Gaithersburg, Maryland, USA
Current

21 mins ago

KGAI 221356Z AUTO 32007G15KT 10SM FEW027 SCT048 15/08 A3017 RMK AO2 SLP245 T01500083
Observed
Apr-22 @ 13:56 UTC
Wind
  • 320° at 7 KTS
  • Gusting to 15 KTS
Visibility
10 SM
Flight Rules
VFR
Cloud Levels
  • Few at 2,700' AGL
  • Scattered at 4,800' AGL
Temperature
15°C / 59°F
Dewpoint
C / 46°F
Humidity
63%
Altimeter
30.17" Hg
Pressure
1021.72 hPa
Previous

1 hour ago

KGAI 221256Z AUTO 32007KT 10SM CLR 13/07 A3016 RMK AO2 SLP243 T01280072
Observed
Apr-22 @ 12:56 UTC
Wind
  • 320° at 7 KTS
Visibility
10 SM
Flight Rules
VFR
Cloud Levels
  • Clear skies
Temperature
13°C / 55°F
Dewpoint
C / 45°F
Humidity
67%
Altimeter
30.16" Hg
Pressure
1021.32 hPa
Previous

2 hours ago

KGAI 221156Z AUTO 31005KT 10SM SCT085 12/07 A3015 RMK AO2 SLP239 T01170072 10122 20094 51019
Observed
Apr-22 @ 11:56 UTC
Wind
  • 310° at 5 KTS
Visibility
10 SM
Flight Rules
VFR
Cloud Levels
  • Scattered at 8,500' AGL
Temperature
12°C / 54°F
Dewpoint
C / 45°F
Humidity
72%
Altimeter
30.15" Hg
Pressure
1021.02 hPa